Hlavní strana
METAR-TAF:

METAR-TAF

Letiště :

Östersund-Frösön, Švédsko

zeměpisná šířka: 63-11N, zeměpisná délka: 014-30E, výška: 376 m

Aktuální stav počasí

Zpráva byla vytvořena před 32 minutami, v 20:20 UTC
Východojihovýchodní vítr 11 kt
Teplota 0°C
Vlhkost vzduchu 100%
Tlak 998 hPa
Viditelnost: 2900 m
Skoro jasno ve výšce 400 ft
Polojasno ve výšce 900 ft
Oblačno až skoro zataženo ve výšce 1500 ft
slabé sněžení, kouřmo

METAR: ESNZ 122020Z 12011KT 2900 -SN BR FEW004 SCT009 BKN015 00/00 Q0998

Čas: 21:52 (20:52 UTC)

Předpověď počasí

Zpráva byla vytvořena před 22 minutami, v 20:30 UTC
Předpověď platná od 12 v 21 UTC do 12 v 23 UTC
Východojihovýchodní vítr 10 kt
Viditelnost: 1800 m
ve výšce 1000 ft
sníh
Dočasný
od 12 v 21 UTC do 12 v 23 UTC
Viditelnost: 6000 m
Oblačno až skoro zataženo ve výšce 600 ft
slabé sněžení

TAF: ESNZ 122030Z 1221/1223 12010KT 1800 SN VV010 TEMPO 1221/1223 6000 -SN BKN006

Stav a předpovědi počasí z více než 4 000 letišť (zprávy METAR a TAF).

Červené a žluté tečky na mapě představují dostupné meteorologické stanice.

Když kurzor umístíte na tečku, zobrazí se název stanice.

Pak kliknutím zobrazíte stav a předpověď počasí.

Chcete-li změnit mapu, kliknutím na zelené tlačítko se znaménkem +mapu přiblížíte, kliknutím na zelené tlačítko se znaménkem – mapu oddálíte a kliknutím na zelené šipky přejdete na sousední mapy.


METAR-TAF: